KFFO

Wright-Patterson AFB Airport

Dayton, Ohio, USA
METAR KFFO 181356Z 27005KT 10SM OVC010 01/M02 A3013 RMK AO2A SLP214 T00081016
Observed Flight Rules
Jan-18 @ 13:56 UTC (34 minutes ago) Marginal Visual Flight Rules
Wind Visibility Clouds
270° at 5 knots 10 miles
  • Overcast at 1,000' AGL
Temperatures Readings
Current 1°C / 34°F
Dewpoint -2°C / 28°F
Humidity 81%
Altimeter 30.13" Hg
Pressure 1021.4 hPa
Elevation 251
METAR KFFO 181356Z 27005KT 10SM OVC010 01/M02 A3013 RMK AO2A SLP214 T00081016
Observed Flight Rules
Jan-18 @ 13:56 UTC
(34 minutes ago)
MVFR
Wind Visibility
270° at 5 knots 10 miles
Clouds
  • Overcast at 1,000' AGL
Temperature Dewpoint
1°C / 34°F -2°C / 28°F
Humidity Altimeter Pressure
81% 30.13" Hg 1021.4 hPa